KLZZ

Lampasas Airport

Lampasas, Texas, USA
METAR KLZZ 170555Z AUTO 15003KT 4SM BR BKN002 OVC035 05/05 A3001 RMK AO2 60017 T00520050 10063 20052 401020014
Observed Flight Rules
Dec-17 @ 05:55 UTC (22 minutes ago) Instrument Flight Rules
Wind Visibility Clouds Conditions
150° at 3 knots 4 miles
  • Broken at 200' AGL
  • Overcast at 3,500' AGL
  • Mist
Temperatures Readings
Current 5°C / 41°F
Dewpoint 5°C / 41°F
Humidity 100%
Altimeter 30.01" Hg
Pressure 1016 hPa
Elevation 371
METAR KLZZ 170555Z AUTO 15003KT 4SM BR BKN002 OVC035 05/05 A3001 RMK AO2 60017 T00520050 10063 20052 401020014
Observed Flight Rules
Dec-17 @ 05:55 UTC
(22 minutes ago)
LIFR
Wind Visibility
150° at 3 knots 4 miles
Clouds
  • Broken at 200' AGL
  • Overcast at 3,500' AGL
Conditions
  • Mist
Temperature Dewpoint
5°C / 41°F 5°C / 41°F
Humidity Altimeter Pressure
100% 30.01" Hg 1016 hPa